sensor_id;sensor_type;location;lat;lon;timestamp;P1;durP1;ratioP1;P2;durP2;ratioP2
15936;SDS011;9163;48.818;8.976;2023-02-04T00:02:26;8.03;;;5.90;;
15936;SDS011;9163;48.818;8.976;2023-02-04T00:04:55;8.10;;;5.83;;
15936;SDS011;9163;48.818;8.976;2023-02-04T00:07:24;6.53;;;5.33;;
15936;SDS011;9163;48.818;8.976;2023-02-04T00:09:51;6.30;;;5.30;;
15936;SDS011;9163;48.818;8.976;2023-02-04T00:12:18;6.47;;;4.90;;
15936;SDS011;9163;48.818;8.976;2023-02-04T00:14:46;6.27;;;4.70;;
15936;SDS011;9163;48.818;8.976;2023-02-04T00:17:13;7.70;;;4.77;;
15936;SDS011;9163;48.818;8.976;2023-02-04T00:19:41;5.43;;;4.60;;
15936;SDS011;9163;48.818;8.976;2023-02-04T00:22:09;5.97;;;4.30;;
15936;SDS011;9163;48.818;8.976;2023-02-04T00:24:37;5.07;;;4.30;;
15936;SDS011;9163;48.818;8.976;2023-02-04T00:27:05;6.07;;;4.57;;
15936;SDS011;9163;48.818;8.976;2023-02-04T00:29:32;4.93;;;4.20;;
15936;SDS011;9163;48.818;8.976;2023-02-04T00:31:59;5.60;;;4.60;;
15936;SDS011;9163;48.818;8.976;2023-02-04T00:34:26;5.13;;;4.23;;
15936;SDS011;9163;48.818;8.976;2023-02-04T00:36:54;5.30;;;4.30;;
15936;SDS011;9163;48.818;8.976;2023-02-04T00:39:22;5.87;;;4.00;;
15936;SDS011;9163;48.818;8.976;2023-02-04T00:41:49;5.23;;;4.17;;
15936;SDS011;9163;48.818;8.976;2023-02-04T00:44:17;6.80;;;4.53;;
15936;SDS011;9163;48.818;8.976;2023-02-04T00:46:44;7.50;;;4.40;;
15936;SDS011;9163;48.818;8.976;2023-02-04T00:49:13;5.83;;;4.67;;
15936;SDS011;9163;48.818;8.976;2023-02-04T00:51:40;5.57;;;4.53;;
15936;SDS011;9163;48.818;8.976;2023-02-04T00:54:10;5.23;;;4.10;;
15936;SDS011;9163;48.818;8.976;2023-02-04T00:56:39;6.13;;;4.17;;
15936;SDS011;9163;48.818;8.976;2023-02-04T00:59:06;4.27;;;3.80;;
15936;SDS011;9163;48.818;8.976;2023-02-04T01:01:34;4.50;;;3.53;;
15936;SDS011;9163;48.818;8.976;2023-02-04T01:04:01;4.50;;;3.53;;
15936;SDS011;9163;48.818;8.976;2023-02-04T01:06:28;5.23;;;3.47;;
15936;SDS011;9163;48.818;8.976;2023-02-04T01:08:56;3.60;;;3.17;;
15936;SDS011;9163;48.818;8.976;2023-02-04T01:11:23;4.10;;;3.40;;
15936;SDS011;9163;48.818;8.976;2023-02-04T01:13:51;3.67;;;2.80;;
15936;SDS011;9163;48.818;8.976;2023-02-04T01:16:19;3.20;;;2.50;;
15936;SDS011;9163;48.818;8.976;2023-02-04T01:18:46;4.67;;;2.27;;
15936;SDS011;9163;48.818;8.976;2023-02-04T01:21:13;2.80;;;2.20;;
15936;SDS011;9163;48.818;8.976;2023-02-04T01:23:41;3.30;;;2.30;;
15936;SDS011;9163;48.818;8.976;2023-02-04T01:26:08;4.27;;;2.10;;
15936;SDS011;9163;48.818;8.976;2023-02-04T01:28:35;2.67;;;1.70;;
15936;SDS011;9163;48.818;8.976;2023-02-04T01:31:04;2.40;;;1.87;;
15936;SDS011;9163;48.818;8.976;2023-02-04T01:33:31;2.53;;;1.53;;
15936;SDS011;9163;48.818;8.976;2023-02-04T01:35:58;3.63;;;1.80;;
15936;SDS011;9163;48.818;8.976;2023-02-04T01:38:26;2.67;;;2.20;;
15936;SDS011;9163;48.818;8.976;2023-02-04T01:40:53;3.23;;;1.67;;
15936;SDS011;9163;48.818;8.976;2023-02-04T01:43:21;2.60;;;1.50;;
15936;SDS011;9163;48.818;8.976;2023-02-04T01:45:49;2.37;;;1.10;;
15936;SDS011;9163;48.818;8.976;2023-02-04T01:48:19;3.73;;;1.37;;
15936;SDS011;9163;48.818;8.976;2023-02-04T01:50:48;3.67;;;1.00;;
15936;SDS011;9163;48.818;8.976;2023-02-04T01:53:18;3.10;;;0.90;;
15936;SDS011;9163;48.818;8.976;2023-02-04T01:55:47;4.90;;;1.20;;
15936;SDS011;9163;48.818;8.976;2023-02-04T01:58:15;3.73;;;1.60;;
15936;SDS011;9163;48.818;8.976;2023-02-04T02:00:43;4.90;;;1.57;;
15936;SDS011;9163;48.818;8.976;2023-02-04T02:03:10;3.90;;;1.40;;
15936;SDS011;9163;48.818;8.976;2023-02-04T02:05:40;4.83;;;1.50;;
15936;SDS011;9163;48.818;8.976;2023-02-04T02:08:10;5.43;;;1.40;;
15936;SDS011;9163;48.818;8.976;2023-02-04T02:10:40;4.23;;;1.67;;
15936;SDS011;9163;48.818;8.976;2023-02-04T02:13:09;5.40;;;1.67;;
15936;SDS011;9163;48.818;8.976;2023-02-04T02:15:38;7.73;;;1.90;;
15936;SDS011;9163;48.818;8.976;2023-02-04T02:18:05;3.10;;;1.30;;
15936;SDS011;9163;48.818;8.976;2023-02-04T02:20:33;4.40;;;1.40;;
15936;SDS011;9163;48.818;8.976;2023-02-04T02:23:03;6.10;;;1.50;;
15936;SDS011;9163;48.818;8.976;2023-02-04T02:25:38;4.83;;;1.10;;
15936;SDS011;9163;48.818;8.976;2023-02-04T02:28:10;6.07;;;1.63;;
15936;SDS011;9163;48.818;8.976;2023-02-04T02:30:40;3.03;;;1.50;;
15936;SDS011;9163;48.818;8.976;2023-02-04T02:33:10;5.03;;;1.30;;
15936;SDS011;9163;48.818;8.976;2023-02-04T02:35:39;4.00;;;1.73;;
15936;SDS011;9163;48.818;8.976;2023-02-04T02:38:07;5.77;;;1.40;;
15936;SDS011;9163;48.818;8.976;2023-02-04T02:40:35;5.20;;;1.47;;
15936;SDS011;9163;48.818;8.976;2023-02-04T02:43:04;4.80;;;1.50;;
15936;SDS011;9163;48.818;8.976;2023-02-04T02:45:32;5.37;;;1.40;;
15936;SDS011;9163;48.818;8.976;2023-02-04T02:48:00;4.37;;;1.40;;
15936;SDS011;9163;48.818;8.976;2023-02-04T02:50:29;8.03;;;2.40;;
15936;SDS011;9163;48.818;8.976;2023-02-04T02:52:58;7.60;;;2.10;;
15936;SDS011;9163;48.818;8.976;2023-02-04T02:55:26;6.23;;;2.20;;
15936;SDS011;9163;48.818;8.976;2023-02-04T02:57:55;6.13;;;2.20;;
15936;SDS011;9163;48.818;8.976;2023-02-04T03:00:24;5.40;;;2.20;;
15936;SDS011;9163;48.818;8.976;2023-02-04T03:02:53;5.27;;;1.97;;
15936;SDS011;9163;48.818;8.976;2023-02-04T03:05:24;6.17;;;2.03;;
15936;SDS011;9163;48.818;8.976;2023-02-04T03:07:54;7.30;;;2.23;;
15936;SDS011;9163;48.818;8.976;2023-02-04T03:10:21;9.57;;;2.37;;
15936;SDS011;9163;48.818;8.976;2023-02-04T03:12:48;8.30;;;2.53;;
15936;SDS011;9163;48.818;8.976;2023-02-04T03:15:17;9.67;;;2.30;;
15936;SDS011;9163;48.818;8.976;2023-02-04T03:17:44;10.97;;;3.00;;
15936;SDS011;9163;48.818;8.976;2023-02-04T03:20:12;8.13;;;2.67;;
15936;SDS011;9163;48.818;8.976;2023-02-04T03:22:41;7.87;;;2.63;;
15936;SDS011;9163;48.818;8.976;2023-02-04T03:25:08;7.43;;;2.73;;
15936;SDS011;9163;48.818;8.976;2023-02-04T03:27:35;10.17;;;2.57;;
15936;SDS011;9163;48.818;8.976;2023-02-04T03:30:04;12.40;;;3.17;;
15936;SDS011;9163;48.818;8.976;2023-02-04T03:32:34;13.83;;;3.00;;
15936;SDS011;9163;48.818;8.976;2023-02-04T03:35:01;8.13;;;2.77;;
15936;SDS011;9163;48.818;8.976;2023-02-04T03:37:29;13.07;;;3.10;;
15936;SDS011;9163;48.818;8.976;2023-02-04T03:39:56;10.23;;;2.73;;
15936;SDS011;9163;48.818;8.976;2023-02-04T03:42:23;14.37;;;3.33;;
15936;SDS011;9163;48.818;8.976;2023-02-04T03:44:52;12.20;;;3.07;;
15936;SDS011;9163;48.818;8.976;2023-02-04T03:47:19;9.63;;;3.10;;
15936;SDS011;9163;48.818;8.976;2023-02-04T03:49:48;13.20;;;3.63;;
15936;SDS011;9163;48.818;8.976;2023-02-04T03:52:15;12.10;;;3.23;;
15936;SDS011;9163;48.818;8.976;2023-02-04T03:54:42;10.83;;;3.30;;
15936;SDS011;9163;48.818;8.976;2023-02-04T03:57:09;7.20;;;3.20;;
15936;SDS011;9163;48.818;8.976;2023-02-04T03:59:37;8.93;;;3.00;;
15936;SDS011;9163;48.818;8.976;2023-02-04T04:02:04;8.30;;;3.13;;
15936;SDS011;9163;48.818;8.976;2023-02-04T04:04:32;9.67;;;3.07;;
15936;SDS011;9163;48.818;8.976;2023-02-04T04:07:00;9.17;;;3.50;;
15936;SDS011;9163;48.818;8.976;2023-02-04T04:09:28;8.57;;;3.40;;
15936;SDS011;9163;48.818;8.976;2023-02-04T04:11:55;6.60;;;2.93;;
15936;SDS011;9163;48.818;8.976;2023-02-04T04:14:22;7.47;;;3.40;;
15936;SDS011;9163;48.818;8.976;2023-02-04T04:16:49;9.53;;;3.07;;
15936;SDS011;9163;48.818;8.976;2023-02-04T04:19:16;7.00;;;3.50;;
15936;SDS011;9163;48.818;8.976;2023-02-04T04:21:44;13.23;;;3.60;;
15936;SDS011;9163;48.818;8.976;2023-02-04T04:24:12;7.73;;;3.60;;
15936;SDS011;9163;48.818;8.976;2023-02-04T04:26:41;7.53;;;3.67;;
15936;SDS011;9163;48.818;8.976;2023-02-04T04:29:08;8.37;;;3.50;;
15936;SDS011;9163;48.818;8.976;2023-02-04T04:31:35;7.37;;;3.43;;
15936;SDS011;9163;48.818;8.976;2023-02-04T04:34:02;9.27;;;3.67;;
15936;SDS011;9163;48.818;8.976;2023-02-04T04:36:29;7.23;;;3.93;;
15936;SDS011;9163;48.818;8.976;2023-02-04T04:38:57;7.63;;;3.80;;
15936;SDS011;9163;48.818;8.976;2023-02-04T04:41:25;7.80;;;3.60;;
15936;SDS011;9163;48.818;8.976;2023-02-04T04:43:52;8.33;;;4.17;;
15936;SDS011;9163;48.818;8.976;2023-02-04T04:46:20;10.73;;;3.93;;
15936;SDS011;9163;48.818;8.976;2023-02-04T04:48:47;5.27;;;3.20;;
15936;SDS011;9163;48.818;8.976;2023-02-04T04:51:15;9.93;;;4.07;;
15936;SDS011;9163;48.818;8.976;2023-02-04T04:53:42;8.53;;;3.53;;
15936;SDS011;9163;48.818;8.976;2023-02-04T04:56:09;6.67;;;3.83;;
15936;SDS011;9163;48.818;8.976;2023-02-04T04:58:38;7.43;;;3.27;;
15936;SDS011;9163;48.818;8.976;2023-02-04T05:01:05;5.70;;;3.40;;
15936;SDS011;9163;48.818;8.976;2023-02-04T05:03:32;7.73;;;4.97;;
15936;SDS011;9163;48.818;8.976;2023-02-04T05:06:00;10.17;;;4.97;;
15936;SDS011;9163;48.818;8.976;2023-02-04T05:08:27;9.47;;;4.10;;
15936;SDS011;9163;48.818;8.976;2023-02-04T05:10:54;7.50;;;4.00;;
15936;SDS011;9163;48.818;8.976;2023-02-04T05:13:21;7.07;;;4.20;;
15936;SDS011;9163;48.818;8.976;2023-02-04T05:15:51;26.77;;;17.47;;
15936;SDS011;9163;48.818;8.976;2023-02-04T05:18:18;9.23;;;5.70;;
15936;SDS011;9163;48.818;8.976;2023-02-04T05:20:45;15.73;;;7.67;;
15936;SDS011;9163;48.818;8.976;2023-02-04T05:23:12;8.40;;;4.67;;
15936;SDS011;9163;48.818;8.976;2023-02-04T05:25:41;9.93;;;4.60;;
15936;SDS011;9163;48.818;8.976;2023-02-04T05:28:08;8.73;;;4.53;;
15936;SDS011;9163;48.818;8.976;2023-02-04T05:30:35;6.80;;;4.50;;
15936;SDS011;9163;48.818;8.976;2023-02-04T05:33:04;10.20;;;4.10;;
15936;SDS011;9163;48.818;8.976;2023-02-04T05:35:31;11.33;;;4.30;;
15936;SDS011;9163;48.818;8.976;2023-02-04T05:37:58;10.53;;;4.13;;
15936;SDS011;9163;48.818;8.976;2023-02-04T05:40:26;11.80;;;4.43;;
15936;SDS011;9163;48.818;8.976;2023-02-04T05:42:53;8.87;;;4.30;;
15936;SDS011;9163;48.818;8.976;2023-02-04T05:45:20;10.80;;;4.07;;
15936;SDS011;9163;48.818;8.976;2023-02-04T05:47:47;10.83;;;4.80;;
15936;SDS011;9163;48.818;8.976;2023-02-04T05:50:16;14.57;;;4.83;;
15936;SDS011;9163;48.818;8.976;2023-02-04T05:52:44;9.00;;;4.40;;
15936;SDS011;9163;48.818;8.976;2023-02-04T05:55:12;13.80;;;4.87;;
15936;SDS011;9163;48.818;8.976;2023-02-04T05:57:39;14.83;;;5.53;;
15936;SDS011;9163;48.818;8.976;2023-02-04T06:00:07;13.60;;;4.83;;
15936;SDS011;9163;48.818;8.976;2023-02-04T06:02:36;14.67;;;5.77;;
15936;SDS011;9163;48.818;8.976;2023-02-04T06:05:04;15.33;;;6.30;;
15936;SDS011;9163;48.818;8.976;2023-02-04T06:07:33;14.50;;;6.17;;
15936;SDS011;9163;48.818;8.976;2023-02-04T06:10:00;16.70;;;6.63;;
15936;SDS011;9163;48.818;8.976;2023-02-04T06:12:27;18.23;;;6.47;;
15936;SDS011;9163;48.818;8.976;2023-02-04T06:14:54;14.93;;;6.70;;
15936;SDS011;9163;48.818;8.976;2023-02-04T06:17:21;18.27;;;7.30;;
15936;SDS011;9163;48.818;8.976;2023-02-04T06:19:49;18.70;;;6.83;;
15936;SDS011;9163;48.818;8.976;2023-02-04T06:22:16;15.87;;;7.83;;
15936;SDS011;9163;48.818;8.976;2023-02-04T06:24:45;18.07;;;7.07;;
15936;SDS011;9163;48.818;8.976;2023-02-04T06:27:12;22.57;;;7.57;;
15936;SDS011;9163;48.818;8.976;2023-02-04T06:29:43;22.47;;;7.97;;
15936;SDS011;9163;48.818;8.976;2023-02-04T06:32:10;22.40;;;8.10;;
15936;SDS011;9163;48.818;8.976;2023-02-04T06:34:37;20.87;;;8.07;;
15936;SDS011;9163;48.818;8.976;2023-02-04T06:37:04;21.53;;;7.67;;
15936;SDS011;9163;48.818;8.976;2023-02-04T06:39:31;23.17;;;8.33;;
15936;SDS011;9163;48.818;8.976;2023-02-04T06:42:00;18.43;;;7.57;;
15936;SDS011;9163;48.818;8.976;2023-02-04T06:44:27;19.63;;;8.30;;
15936;SDS011;9163;48.818;8.976;2023-02-04T06:46:54;21.63;;;8.40;;
15936;SDS011;9163;48.818;8.976;2023-02-04T06:49:22;18.17;;;7.60;;
15936;SDS011;9163;48.818;8.976;2023-02-04T06:51:49;21.20;;;8.40;;
15936;SDS011;9163;48.818;8.976;2023-02-04T06:54:17;25.87;;;8.33;;
15936;SDS011;9163;48.818;8.976;2023-02-04T06:56:44;18.97;;;7.70;;
15936;SDS011;9163;48.818;8.976;2023-02-04T06:59:12;26.17;;;7.40;;
15936;SDS011;9163;48.818;8.976;2023-02-04T07:01:40;20.30;;;7.57;;
15936;SDS011;9163;48.818;8.976;2023-02-04T07:04:07;21.67;;;7.77;;
15936;SDS011;9163;48.818;8.976;2023-02-04T07:06:34;21.40;;;8.13;;
15936;SDS011;9163;48.818;8.976;2023-02-04T07:09:01;22.33;;;9.10;;
15936;SDS011;9163;48.818;8.976;2023-02-04T07:11:29;22.63;;;8.30;;
15936;SDS011;9163;48.818;8.976;2023-02-04T07:13:56;21.33;;;8.30;;
15936;SDS011;9163;48.818;8.976;2023-02-04T07:16:25;22.33;;;8.67;;
15936;SDS011;9163;48.818;8.976;2023-02-04T07:18:52;21.03;;;8.33;;
15936;SDS011;9163;48.818;8.976;2023-02-04T07:21:19;23.83;;;8.23;;
15936;SDS011;9163;48.818;8.976;2023-02-04T07:23:46;18.07;;;8.30;;
15936;SDS011;9163;48.818;8.976;2023-02-04T07:26:13;20.40;;;7.93;;
15936;SDS011;9163;48.818;8.976;2023-02-04T07:28:41;19.27;;;8.43;;
15936;SDS011;9163;48.818;8.976;2023-02-04T07:31:09;20.60;;;8.30;;
15936;SDS011;9163;48.818;8.976;2023-02-04T07:33:37;23.73;;;9.23;;
15936;SDS011;9163;48.818;8.976;2023-02-04T07:36:04;21.53;;;9.87;;
15936;SDS011;9163;48.818;8.976;2023-02-04T07:38:32;36.23;;;14.77;;
15936;SDS011;9163;48.818;8.976;2023-02-04T07:40:59;25.67;;;10.60;;
15936;SDS011;9163;48.818;8.976;2023-02-04T07:43:27;24.97;;;10.23;;
15936;SDS011;9163;48.818;8.976;2023-02-04T07:45:54;27.40;;;9.97;;
15936;SDS011;9163;48.818;8.976;2023-02-04T07:48:21;22.20;;;8.80;;
15936;SDS011;9163;48.818;8.976;2023-02-04T07:50:50;21.90;;;8.70;;
15936;SDS011;9163;48.818;8.976;2023-02-04T07:53:17;18.30;;;8.40;;
15936;SDS011;9163;48.818;8.976;2023-02-04T07:55:45;18.67;;;8.47;;
15936;SDS011;9163;48.818;8.976;2023-02-04T07:58:12;26.00;;;9.30;;
15936;SDS011;9163;48.818;8.976;2023-02-04T08:00:39;22.77;;;9.03;;
15936;SDS011;9163;48.818;8.976;2023-02-04T08:03:07;16.20;;;8.80;;
15936;SDS011;9163;48.818;8.976;2023-02-04T08:05:34;21.80;;;8.43;;
15936;SDS011;9163;48.818;8.976;2023-02-04T08:08:03;20.67;;;8.57;;
15936;SDS011;9163;48.818;8.976;2023-02-04T08:10:30;18.90;;;8.50;;
15936;SDS011;9163;48.818;8.976;2023-02-04T08:12:57;21.23;;;8.40;;
15936;SDS011;9163;48.818;8.976;2023-02-04T08:15:25;27.60;;;9.47;;
15936;SDS011;9163;48.818;8.976;2023-02-04T08:17:52;17.87;;;8.07;;
15936;SDS011;9163;48.818;8.976;2023-02-04T08:20:19;20.10;;;9.03;;
15936;SDS011;9163;48.818;8.976;2023-02-04T08:22:46;16.97;;;8.43;;
15936;SDS011;9163;48.818;8.976;2023-02-04T08:25:15;21.40;;;8.27;;
15936;SDS011;9163;48.818;8.976;2023-02-04T08:27:42;18.87;;;8.10;;
15936;SDS011;9163;48.818;8.976;2023-02-04T08:30:10;20.13;;;8.53;;
15936;SDS011;9163;48.818;8.976;2023-02-04T08:32:37;43.90;;;11.20;;
15936;SDS011;9163;48.818;8.976;2023-02-04T08:35:05;22.63;;;8.77;;
15936;SDS011;9163;48.818;8.976;2023-02-04T08:37:33;19.40;;;8.03;;
15936;SDS011;9163;48.818;8.976;2023-02-04T08:40:00;18.27;;;7.33;;
15936;SDS011;9163;48.818;8.976;2023-02-04T08:42:29;18.70;;;7.63;;
15936;SDS011;9163;48.818;8.976;2023-02-04T08:44:56;19.33;;;7.80;;
15936;SDS011;9163;48.818;8.976;2023-02-04T08:47:23;20.50;;;9.27;;
15936;SDS011;9163;48.818;8.976;2023-02-04T08:49:50;22.70;;;8.20;;
15936;SDS011;9163;48.818;8.976;2023-02-04T08:52:18;15.37;;;7.00;;
15936;SDS011;9163;48.818;8.976;2023-02-04T08:54:45;16.73;;;7.50;;
15936;SDS011;9163;48.818;8.976;2023-02-04T08:57:12;17.20;;;6.83;;
15936;SDS011;9163;48.818;8.976;2023-02-04T08:59:41;14.87;;;6.00;;
15936;SDS011;9163;48.818;8.976;2023-02-04T09:02:09;12.30;;;6.40;;
15936;SDS011;9163;48.818;8.976;2023-02-04T09:04:36;13.30;;;5.60;;
15936;SDS011;9163;48.818;8.976;2023-02-04T09:07:04;13.53;;;5.50;;
15936;SDS011;9163;48.818;8.976;2023-02-04T09:09:31;12.67;;;4.90;;
15936;SDS011;9163;48.818;8.976;2023-02-04T09:11:58;15.83;;;4.90;;
15936;SDS011;9163;48.818;8.976;2023-02-04T09:14:26;15.60;;;5.40;;
15936;SDS011;9163;48.818;8.976;2023-02-04T09:16:55;11.00;;;4.23;;
15936;SDS011;9163;48.818;8.976;2023-02-04T09:19:22;13.07;;;3.60;;
15936;SDS011;9163;48.818;8.976;2023-02-04T09:21:50;13.00;;;3.97;;
15936;SDS011;9163;48.818;8.976;2023-02-04T09:24:17;12.67;;;3.20;;
15936;SDS011;9163;48.818;8.976;2023-02-04T09:26:47;9.30;;;2.83;;
15936;SDS011;9163;48.818;8.976;2023-02-04T09:29:15;12.57;;;3.33;;
15936;SDS011;9163;48.818;8.976;2023-02-04T09:31:42;9.33;;;2.93;;
15936;SDS011;9163;48.818;8.976;2023-02-04T09:34:11;11.33;;;3.37;;
15936;SDS011;9163;48.818;8.976;2023-02-04T09:36:38;11.60;;;3.63;;
15936;SDS011;9163;48.818;8.976;2023-02-04T09:39:05;10.43;;;3.13;;
15936;SDS011;9163;48.818;8.976;2023-02-04T09:41:34;10.37;;;3.77;;
15936;SDS011;9163;48.818;8.976;2023-02-04T09:44:03;10.90;;;3.23;;
15936;SDS011;9163;48.818;8.976;2023-02-04T09:46:36;9.43;;;3.40;;
15936;SDS011;9163;48.818;8.976;2023-02-04T09:49:04;10.97;;;3.27;;
15936;SDS011;9163;48.818;8.976;2023-02-04T09:51:32;12.30;;;3.80;;
15936;SDS011;9163;48.818;8.976;2023-02-04T09:54:03;11.30;;;3.03;;
15936;SDS011;9163;48.818;8.976;2023-02-04T09:56:34;12.17;;;3.50;;
15936;SDS011;9163;48.818;8.976;2023-02-04T09:59:02;15.13;;;3.57;;
15936;SDS011;9163;48.818;8.976;2023-02-04T10:01:30;15.17;;;3.53;;
15936;SDS011;9163;48.818;8.976;2023-02-04T10:03:59;10.17;;;3.10;;
15936;SDS011;9163;48.818;8.976;2023-02-04T10:06:27;10.60;;;3.30;;
15936;SDS011;9163;48.818;8.976;2023-02-04T10:08:56;15.70;;;3.77;;
15936;SDS011;9163;48.818;8.976;2023-02-04T10:11:23;16.43;;;3.60;;
15936;SDS011;9163;48.818;8.976;2023-02-04T10:13:52;11.47;;;3.80;;
15936;SDS011;9163;48.818;8.976;2023-02-04T10:16:21;14.67;;;4.17;;
15936;SDS011;9163;48.818;8.976;2023-02-04T10:18:54;10.37;;;3.23;;
15936;SDS011;9163;48.818;8.976;2023-02-04T10:21:23;14.53;;;6.07;;
15936;SDS011;9163;48.818;8.976;2023-02-04T10:23:54;17.77;;;4.97;;
15936;SDS011;9163;48.818;8.976;2023-02-04T10:26:25;16.13;;;7.97;;
15936;SDS011;9163;48.818;8.976;2023-02-04T10:28:57;12.50;;;4.10;;
15936;SDS011;9163;48.818;8.976;2023-02-04T10:31:30;12.13;;;3.57;;
15936;SDS011;9163;48.818;8.976;2023-02-04T10:34:08;12.27;;;3.30;;
15936;SDS011;9163;48.818;8.976;2023-02-04T10:36:38;11.37;;;3.10;;
15936;SDS011;9163;48.818;8.976;2023-02-04T10:39:09;10.30;;;2.97;;
15936;SDS011;9163;48.818;8.976;2023-02-04T10:41:43;13.13;;;3.43;;
15936;SDS011;9163;48.818;8.976;2023-02-04T10:44:12;15.30;;;2.93;;
15936;SDS011;9163;48.818;8.976;2023-02-04T10:46:42;12.80;;;3.73;;
15936;SDS011;9163;48.818;8.976;2023-02-04T10:49:20;10.27;;;2.70;;
15936;SDS011;9163;48.818;8.976;2023-02-04T10:51:48;11.37;;;3.47;;
15936;SDS011;9163;48.818;8.976;2023-02-04T10:54:19;9.80;;;3.17;;
15936;SDS011;9163;48.818;8.976;2023-02-04T10:57:02;9.07;;;2.40;;
15936;SDS011;9163;48.818;8.976;2023-02-04T10:59:37;9.63;;;2.50;;
15936;SDS011;9163;48.818;8.976;2023-02-04T11:02:14;9.50;;;2.57;;
15936;SDS011;9163;48.818;8.976;2023-02-04T11:05:09;10.50;;;2.77;;
15936;SDS011;9163;48.818;8.976;2023-02-04T11:07:40;8.67;;;2.20;;
15936;SDS011;9163;48.818;8.976;2023-02-04T11:10:13;10.17;;;2.60;;
15936;SDS011;9163;48.818;8.976;2023-02-04T11:12:43;7.90;;;2.10;;
15936;SDS011;9163;48.818;8.976;2023-02-04T11:18:10;10.13;;;2.57;;
15936;SDS011;9163;48.818;8.976;2023-02-04T11:20:39;9.20;;;2.50;;
15936;SDS011;9163;48.818;8.976;2023-02-04T11:23:27;13.87;;;2.70;;
15936;SDS011;9163;48.818;8.976;2023-02-04T11:26:05;10.23;;;2.30;;
15936;SDS011;9163;48.818;8.976;2023-02-04T11:28:39;11.73;;;3.13;;
15936;SDS011;9163;48.818;8.976;2023-02-04T11:31:25;11.60;;;2.80;;
15936;SDS011;9163;48.818;8.976;2023-02-04T11:34:05;13.00;;;2.63;;
15936;SDS011;9163;48.818;8.976;2023-02-04T11:36:48;9.77;;;2.37;;
15936;SDS011;9163;48.818;8.976;2023-02-04T11:39:31;11.93;;;2.40;;
15936;SDS011;9163;48.818;8.976;2023-02-04T11:42:02;9.80;;;2.20;;
15936;SDS011;9163;48.818;8.976;2023-02-04T11:44:30;10.27;;;2.27;;
15936;SDS011;9163;48.818;8.976;2023-02-04T11:46:58;11.00;;;2.43;;
15936;SDS011;9163;48.818;8.976;2023-02-04T11:49:27;10.23;;;2.87;;
15936;SDS011;9163;48.818;8.976;2023-02-04T11:52:02;9.00;;;2.17;;
15936;SDS011;9163;48.818;8.976;2023-02-04T11:54:33;8.60;;;2.13;;
15936;SDS011;9163;48.818;8.976;2023-02-04T11:57:02;11.57;;;2.30;;
15936;SDS011;9163;48.818;8.976;2023-02-04T11:59:30;8.77;;;2.10;;
15936;SDS011;9163;48.818;8.976;2023-02-04T12:02:04;8.17;;;1.83;;
15936;SDS011;9163;48.818;8.976;2023-02-04T12:04:39;7.03;;;1.87;;
15936;SDS011;9163;48.818;8.976;2023-02-04T12:07:20;9.30;;;1.90;;
15936;SDS011;9163;48.818;8.976;2023-02-04T12:09:49;7.60;;;1.90;;
15936;SDS011;9163;48.818;8.976;2023-02-04T12:12:23;7.87;;;1.70;;
15936;SDS011;9163;48.818;8.976;2023-02-04T12:14:55;7.90;;;1.83;;
15936;SDS011;9163;48.818;8.976;2023-02-04T12:17:24;6.97;;;1.80;;
15936;SDS011;9163;48.818;8.976;2023-02-04T12:19:51;7.00;;;1.90;;
15936;SDS011;9163;48.818;8.976;2023-02-04T12:22:18;5.63;;;1.53;;
15936;SDS011;9163;48.818;8.976;2023-02-04T12:24:46;7.50;;;1.43;;
15936;SDS011;9163;48.818;8.976;2023-02-04T12:27:13;6.57;;;1.30;;
15936;SDS011;9163;48.818;8.976;2023-02-04T12:29:42;6.37;;;1.93;;
15936;SDS011;9163;48.818;8.976;2023-02-04T12:32:09;6.73;;;1.67;;
15936;SDS011;9163;48.818;8.976;2023-02-04T12:34:36;7.13;;;1.50;;
15936;SDS011;9163;48.818;8.976;2023-02-04T12:37:03;8.83;;;1.83;;
15936;SDS011;9163;48.818;8.976;2023-02-04T12:39:30;9.03;;;1.60;;
15936;SDS011;9163;48.818;8.976;2023-02-04T12:41:58;10.13;;;1.73;;
15936;SDS011;9163;48.818;8.976;2023-02-04T12:44:25;6.60;;;1.43;;
15936;SDS011;9163;48.818;8.976;2023-02-04T12:46:53;6.37;;;1.50;;
15936;SDS011;9163;48.818;8.976;2023-02-04T12:49:21;4.30;;;1.60;;
15936;SDS011;9163;48.818;8.976;2023-02-04T12:51:49;7.17;;;1.50;;
15936;SDS011;9163;48.818;8.976;2023-02-04T12:54:17;7.83;;;1.63;;
15936;SDS011;9163;48.818;8.976;2023-02-04T12:56:44;10.17;;;1.73;;
15936;SDS011;9163;48.818;8.976;2023-02-04T12:59:13;9.47;;;1.97;;
15936;SDS011;9163;48.818;8.976;2023-02-04T13:01:41;8.40;;;1.50;;
15936;SDS011;9163;48.818;8.976;2023-02-04T13:04:09;6.40;;;1.57;;
15936;SDS011;9163;48.818;8.976;2023-02-04T13:06:36;5.90;;;1.50;;
15936;SDS011;9163;48.818;8.976;2023-02-04T13:09:03;9.03;;;1.70;;
15936;SDS011;9163;48.818;8.976;2023-02-04T13:11:31;4.60;;;1.40;;
15936;SDS011;9163;48.818;8.976;2023-02-04T13:13:58;4.87;;;1.43;;
15936;SDS011;9163;48.818;8.976;2023-02-04T13:16:25;7.57;;;1.53;;
15936;SDS011;9163;48.818;8.976;2023-02-04T13:18:52;6.57;;;1.60;;
15936;SDS011;9163;48.818;8.976;2023-02-04T13:21:21;7.67;;;1.30;;
15936;SDS011;9163;48.818;8.976;2023-02-04T13:23:48;6.10;;;1.60;;
15936;SDS011;9163;48.818;8.976;2023-02-04T13:26:15;4.73;;;1.60;;
15936;SDS011;9163;48.818;8.976;2023-02-04T13:28:42;6.20;;;1.57;;
15936;SDS011;9163;48.818;8.976;2023-02-04T13:31:10;4.70;;;1.70;;
15936;SDS011;9163;48.818;8.976;2023-02-04T13:33:37;6.53;;;1.80;;
15936;SDS011;9163;48.818;8.976;2023-02-04T13:36:05;8.33;;;1.80;;
15936;SDS011;9163;48.818;8.976;2023-02-04T13:38:34;8.27;;;1.97;;
15936;SDS011;9163;48.818;8.976;2023-02-04T13:41:01;6.43;;;2.07;;
15936;SDS011;9163;48.818;8.976;2023-02-04T13:43:28;12.57;;;2.50;;
15936;SDS011;9163;48.818;8.976;2023-02-04T13:45:56;9.63;;;2.10;;
15936;SDS011;9163;48.818;8.976;2023-02-04T13:48:23;8.57;;;2.30;;
15936;SDS011;9163;48.818;8.976;2023-02-04T13:50:50;7.00;;;1.83;;
15936;SDS011;9163;48.818;8.976;2023-02-04T13:53:17;9.63;;;2.27;;
15936;SDS011;9163;48.818;8.976;2023-02-04T13:55:46;11.37;;;2.70;;
15936;SDS011;9163;48.818;8.976;2023-02-04T13:58:13;13.30;;;3.33;;
15936;SDS011;9163;48.818;8.976;2023-02-04T14:00:40;9.40;;;3.37;;
15936;SDS011;9163;48.818;8.976;2023-02-04T14:03:08;8.17;;;2.30;;
15936;SDS011;9163;48.818;8.976;2023-02-04T14:05:35;8.10;;;2.00;;
15936;SDS011;9163;48.818;8.976;2023-02-04T14:08:02;11.00;;;2.50;;
15936;SDS011;9163;48.818;8.976;2023-02-04T14:10:29;13.97;;;2.80;;
15936;SDS011;9163;48.818;8.976;2023-02-04T14:12:58;13.13;;;3.23;;
15936;SDS011;9163;48.818;8.976;2023-02-04T14:15:25;14.13;;;2.67;;
15936;SDS011;9163;48.818;8.976;2023-02-04T14:17:52;16.03;;;3.17;;
15936;SDS011;9163;48.818;8.976;2023-02-04T14:20:19;10.93;;;2.63;;
15936;SDS011;9163;48.818;8.976;2023-02-04T14:22:47;11.03;;;2.90;;
15936;SDS011;9163;48.818;8.976;2023-02-04T14:25:14;10.70;;;2.67;;
15936;SDS011;9163;48.818;8.976;2023-02-04T14:27:41;12.47;;;2.60;;
15936;SDS011;9163;48.818;8.976;2023-02-04T14:30:14;13.07;;;2.97;;
15936;SDS011;9163;48.818;8.976;2023-02-04T14:32:42;12.97;;;2.87;;
15936;SDS011;9163;48.818;8.976;2023-02-04T14:35:10;13.37;;;2.77;;
15936;SDS011;9163;48.818;8.976;2023-02-04T14:37:37;10.80;;;2.43;;
15936;SDS011;9163;48.818;8.976;2023-02-04T14:40:05;11.10;;;2.23;;
15936;SDS011;9163;48.818;8.976;2023-02-04T14:42:33;9.93;;;2.37;;
15936;SDS011;9163;48.818;8.976;2023-02-04T14:45:01;12.83;;;2.77;;
15936;SDS011;9163;48.818;8.976;2023-02-04T14:47:31;12.40;;;3.03;;
15936;SDS011;9163;48.818;8.976;2023-02-04T14:49:58;14.60;;;2.70;;
15936;SDS011;9163;48.818;8.976;2023-02-04T14:52:25;13.63;;;2.57;;
15936;SDS011;9163;48.818;8.976;2023-02-04T14:54:53;9.70;;;2.20;;
15936;SDS011;9163;48.818;8.976;2023-02-04T14:57:20;10.77;;;2.20;;
15936;SDS011;9163;48.818;8.976;2023-02-04T14:59:47;10.53;;;2.70;;
15936;SDS011;9163;48.818;8.976;2023-02-04T15:02:14;11.27;;;2.33;;
15936;SDS011;9163;48.818;8.976;2023-02-04T15:04:43;8.93;;;2.30;;
15936;SDS011;9163;48.818;8.976;2023-02-04T15:07:11;10.67;;;2.40;;